createdAt,value
2022-07-27T00:03:36.601Z,18.09
2022-07-27T00:13:36.767Z,18.06
2022-07-27T00:23:36.943Z,18.24
2022-07-27T00:33:37.102Z,17.91
2022-07-27T00:43:37.279Z,17.71
2022-07-27T00:53:37.444Z,17.35
2022-07-27T01:03:37.602Z,17.66
2022-07-27T01:13:37.758Z,17.78
2022-07-27T01:23:37.949Z,17.63
2022-07-27T01:33:38.129Z,17.46
2022-07-27T01:43:38.430Z,17.47
2022-07-27T01:53:38.498Z,17.47
2022-07-27T02:03:38.678Z,17.41
2022-07-27T02:13:38.870Z,17.13
2022-07-27T02:23:39.048Z,16.80
2022-07-27T02:33:39.210Z,16.75
2022-07-27T02:43:39.386Z,16.67
2022-07-27T02:53:39.545Z,16.49
2022-07-27T03:03:39.710Z,16.30
2022-07-27T03:13:39.913Z,16.85
2022-07-27T03:23:40.101Z,16.92
2022-07-27T03:33:40.305Z,16.70
2022-07-27T03:43:40.475Z,16.89
2022-07-27T03:53:40.629Z,16.85
2022-07-27T04:03:44.209Z,16.98
2022-07-27T04:13:40.983Z,17.03
2022-07-27T04:23:41.184Z,16.95
2022-07-27T04:33:41.622Z,16.70
2022-07-27T04:43:41.469Z,16.83
2022-07-27T04:53:53.350Z,17.35
2022-07-27T05:03:42.871Z,17.64
2022-07-27T05:13:41.963Z,17.74
2022-07-27T05:23:42.140Z,17.88
2022-07-27T05:33:48.092Z,18.07
2022-07-27T05:43:43.479Z,18.12
2022-07-27T05:53:43.131Z,18.31
2022-07-27T06:03:43.225Z,18.29
2022-07-27T06:13:43.128Z,18.46
2022-07-27T06:23:43.329Z,18.58
2022-07-27T06:33:45.360Z,18.64
2022-07-27T06:43:43.733Z,18.36
2022-07-27T06:53:43.958Z,18.27
2022-07-27T07:03:44.228Z,18.57
2022-07-27T07:13:45.206Z,19.58
2022-07-27T07:23:44.403Z,19.50
2022-07-27T07:33:44.646Z,19.36
2022-07-27T07:43:44.739Z,19.90
2022-07-27T07:53:44.828Z,20.65
2022-07-27T08:03:50.339Z,20.58
2022-07-27T08:13:46.226Z,20.71
2022-07-27T08:23:45.401Z,21.54
2022-07-27T08:33:45.592Z,21.19
2022-07-27T08:43:45.763Z,22.44
2022-07-27T08:53:52.748Z,22.04
2022-07-27T09:03:47.236Z,22.56
2022-07-27T09:13:46.339Z,22.75
2022-07-27T09:23:48.159Z,22.52
2022-07-27T09:33:46.672Z,24.02
2022-07-27T09:53:48.011Z,23.85
2022-07-27T10:03:47.177Z,24.01
2022-07-27T10:13:47.353Z,24.79
2022-07-27T10:23:47.539Z,24.95
2022-07-27T10:33:47.690Z,25.10
2022-07-27T10:43:47.848Z,25.64
2022-07-27T10:54:11.510Z,27.71
2022-07-27T11:03:49.128Z,26.83
2022-07-27T11:13:48.308Z,25.17
2022-07-27T11:23:51.339Z,25.94
2022-07-27T11:33:48.698Z,26.44
2022-07-27T11:43:48.753Z,25.44
2022-07-27T11:53:48.949Z,26.15
2022-07-27T12:03:49.130Z,27.88
2022-07-27T12:13:49.309Z,27.01
2022-07-27T12:23:49.485Z,28.84
2022-07-27T12:33:51.701Z,29.04
2022-07-27T12:43:50.872Z,30.56
2022-07-27T12:53:50.042Z,27.96
2022-07-27T13:03:50.211Z,26.73
2022-07-27T13:13:50.555Z,27.58
2022-07-27T13:23:50.529Z,27.17
2022-07-27T13:33:50.616Z,26.54
2022-07-27T13:43:51.081Z,25.84
2022-07-27T13:53:50.920Z,30.05
2022-07-27T14:03:51.089Z,27.36
2022-07-27T14:13:51.299Z,28.23
2022-07-27T14:23:51.490Z,28.91
2022-07-27T14:33:51.685Z,28.53
2022-07-27T14:43:51.884Z,28.28
2022-07-27T14:53:52.076Z,29.65
2022-07-27T15:03:52.235Z,27.59
2022-07-27T15:13:52.440Z,28.19
2022-07-27T15:23:52.651Z,28.44
2022-07-27T15:33:52.742Z,25.47
2022-07-27T15:43:52.944Z,25.37
2022-07-27T15:53:53.124Z,26.74
2022-07-27T16:03:53.310Z,29.37
2022-07-27T16:13:53.714Z,30.07
2022-07-27T16:23:53.676Z,29.71
2022-07-27T16:33:54.984Z,27.09
2022-07-27T16:43:54.245Z,27.70
2022-07-27T16:53:54.213Z,24.64
2022-07-27T17:03:54.540Z,24.47
2022-07-27T17:13:59.281Z,24.54
2022-07-27T17:23:55.865Z,25.10
2022-07-27T17:33:54.807Z,27.89
2022-07-27T17:43:54.981Z,27.38
2022-07-27T17:53:55.151Z,27.33
2022-07-27T18:03:55.428Z,26.24
2022-07-27T18:13:55.527Z,25.38
2022-07-27T18:23:55.701Z,23.87
2022-07-27T18:33:55.855Z,23.02
2022-07-27T18:43:56.356Z,22.49
2022-07-27T18:53:56.197Z,21.94
2022-07-27T19:03:56.354Z,21.41
2022-07-27T19:13:56.559Z,21.11
2022-07-27T19:23:56.719Z,21.24
2022-07-27T19:33:56.902Z,21.30
2022-07-27T19:43:57.070Z,21.29
2022-07-27T19:53:57.259Z,21.30
2022-07-27T20:03:57.433Z,20.93
2022-07-27T20:13:57.645Z,20.50
2022-07-27T20:23:57.820Z,20.00
2022-07-27T20:33:57.978Z,19.60
2022-07-27T20:43:58.138Z,19.31
2022-07-27T20:53:58.330Z,19.10
2022-07-27T21:03:58.491Z,18.80
2022-07-27T21:13:58.656Z,18.74
2022-07-27T21:20:55.383Z,18.64
2022-07-27T21:30:55.538Z,18.46
2022-07-27T21:40:55.698Z,18.39
2022-07-27T21:50:56.090Z,18.61
2022-07-27T22:00:56.111Z,18.61
2022-07-27T22:10:56.158Z,18.70
2022-07-27T22:20:56.613Z,18.74
2022-07-27T22:31:15.702Z,18.84
2022-07-27T22:40:57.614Z,18.64
2022-07-27T22:50:56.777Z,18.33
2022-07-27T23:00:59.620Z,18.37
2022-07-27T23:10:57.284Z,18.36
2022-07-27T23:20:57.363Z,18.34
2022-07-27T23:30:57.541Z,18.33
2022-07-27T23:40:57.704Z,18.18
2022-07-27T23:50:57.877Z,18.17
